WIII Airport Informations

Runway Information
Runway 07R Length 12008 ft width 197 ft
Elevation 34 ft Threshold ft Heading 68
Runway 25L Length 12008 ft Width 197 ft
Elevation 27 ft Threshold ft Heading 248
Runway 07L Length 11812 ft width 197 ft
Elevation 29 ft Threshold ft Heading 68
Runway 25R Length 11812 ft Width 197 ft
Elevation 21 ft Threshold ft Heading 248
Runway 06 Length 9843 ft width 197 ft
Elevation 24 ft Threshold ft Heading 0
Runway 24 Length 9843 ft Width 197 ft
Elevation 24 ft Threshold ft Heading 0
Airport Frequencies
Type APP Name JAKARTA AP Frequency 119.75 MHZ
Type ARR Name JAKARTA AR Frequency 125.45 MHZ
Type ATIS Name ATIS Frequency 126.85 MHZ
Type CLD Name CLNC DEL Frequency 121.95 MHZ
Type FSS Name JAKARTA CE Frequency 129.7 MHZ
Type GND Name GND Frequency 121.6 MHZ
Type INFO Name PABELOKAN Frequency 129.8 MHZ
Type TWR Name TWR Frequency 118.75 MHZ
Airport Navaids
Type VOR-DME Name Cengkareng Frequency 113600 KHZ
Type VOR-DME Name Jakarta Frequency 114600 KHZ
Airport Weather Information & NOTAM
ADDS - METARS form results

(0939 UTC 28 September 2022)
Data provider http://aviationweather.gov/metar/data/
 
METAR text: WIII 280930Z 36007KT 9999 FEW020 31/24 Q1004 NOSIG
Conditions at: WIII (SOEKARNO-HATTA I, ID) observed 0930 UTC 28 September 2022
Temperature: 31.0°C (88°F)
Dewpoint: 24.0°C (75°F) [RH = 66%]
Pressure (altimeter): 29.65 inches Hg (1004.0 mb)
Winds: from the N (360 degrees) at 8 MPH (7 knots; 3.6 m/s)
Visibility: 6 or more miles (10+ km)
Ceiling: at least 12,000 feet AGL
Clouds: few clouds at 2000 feet AGL
Weather: no significant weather observed at this time

METAR text: WIII 280900Z 36008KT 9999 FEW021 31/23 Q1004 NOSIG
Conditions at: WIII (SOEKARNO-HATTA I, ID) observed 0900 UTC 28 September 2022
Temperature: 31.0°C (88°F)
Dewpoint: 23.0°C (73°F) [RH = 63%]
Pressure (altimeter): 29.65 inches Hg (1004.0 mb)
Winds: from the N (360 degrees) at 9 MPH (8 knots; 4.1 m/s)
Visibility: 6 or more miles (10+ km)
Ceiling: at least 12,000 feet AGL
Clouds: few clouds at 2100 feet AGL
Weather: no significant weather observed at this time

Forecast for: WIII (SOEKARNO-HATTA I, ID)
Text: TAF WIII 280500Z 2806/2912 01010KT 9000 SCT020
Forecast period: 0600 to 1200 UTC 28 September 2022
Forecast type: FROM: standard forecast or significant change
Winds: from the N (10 degrees) at 12 MPH (10 knots; 5.1 m/s)
Visibility: 6 miles (9 km)
Ceiling: at least 12,000 feet AGL
Clouds: scattered clouds at 2000 feet AGL
Weather: no significant weather forecast for this period
Text: BECMG 2812/2814 5000 HZ
Forecast period: 1200 UTC 28 September 2022 to 1200 UTC 29 September 2022
Forecast type: BECOMING: Conditions expected to become as follows by 1400 UTC 28 September 2022
Winds: from the N (10 degrees) at 12 MPH (10 knots; 5.1 m/s)
Visibility: 3 miles (5 km)
Ceiling: at least 12,000 feet AGL
Clouds: scattered clouds at 2000 feet AGL
Weather: HZ  (haze)